NRT weather

Narita International Airport
Tokyo, Chiba Prefecture, Japan

Public forecast

Using degrees Celsius for public forecast. Weather courtesy of forecast.io.

METAR (pilot weather report)

Retrieved 2018/10/19 08:30 UTC (17 minutes ago):

RJAA 190830Z 03007KT 360V060 9999 FEW025 SCT060 BKN070 18/13 Q1017 NOSIG

TAF (pilot weather forecast)

Retrieved 2018/10/19 06:00 UTC (3 hours ago):

TAF RJAA 190511Z 1906/2012 02010KT 9999 FEW020 BKN045 TEMPO 1915/1921 4000 BR